sensor_id;sensor_type;location;lat;lon;timestamp;P1;durP1;ratioP1;P2;durP2;ratioP2
24147;SDS011;12309;51.450;-2.624;2023-03-15T00:00:05;10.83;;;2.40;;
24147;SDS011;12309;51.450;-2.624;2023-03-15T00:02:34;5.60;;;2.57;;
24147;SDS011;12309;51.450;-2.624;2023-03-15T00:05:00;5.70;;;2.60;;
24147;SDS011;12309;51.450;-2.624;2023-03-15T00:07:26;4.87;;;2.40;;
24147;SDS011;12309;51.450;-2.624;2023-03-15T00:09:52;7.50;;;2.67;;
24147;SDS011;12309;51.450;-2.624;2023-03-15T00:12:18;6.83;;;3.37;;
24147;SDS011;12309;51.450;-2.624;2023-03-15T00:14:47;3.90;;;2.33;;
24147;SDS011;12309;51.450;-2.624;2023-03-15T00:17:13;6.97;;;2.20;;
24147;SDS011;12309;51.450;-2.624;2023-03-15T00:19:39;4.50;;;1.90;;
24147;SDS011;12309;51.450;-2.624;2023-03-15T00:22:04;5.40;;;1.90;;
24147;SDS011;12309;51.450;-2.624;2023-03-15T00:24:30;3.33;;;1.70;;
24147;SDS011;12309;51.450;-2.624;2023-03-15T00:26:55;4.17;;;1.30;;
24147;SDS011;12309;51.450;-2.624;2023-03-15T00:29:21;2.60;;;1.73;;
24147;SDS011;12309;51.450;-2.624;2023-03-15T00:31:47;5.60;;;1.53;;
24147;SDS011;12309;51.450;-2.624;2023-03-15T00:34:13;8.47;;;1.73;;
24147;SDS011;12309;51.450;-2.624;2023-03-15T00:36:39;5.90;;;2.00;;
24147;SDS011;12309;51.450;-2.624;2023-03-15T00:39:07;4.43;;;1.97;;
24147;SDS011;12309;51.450;-2.624;2023-03-15T00:41:33;5.87;;;2.17;;
24147;SDS011;12309;51.450;-2.624;2023-03-15T00:43:59;2.77;;;1.77;;
24147;SDS011;12309;51.450;-2.624;2023-03-15T00:46:24;2.73;;;1.90;;
24147;SDS011;12309;51.450;-2.624;2023-03-15T00:48:50;6.20;;;2.30;;
24147;SDS011;12309;51.450;-2.624;2023-03-15T00:51:17;5.87;;;2.47;;
24147;SDS011;12309;51.450;-2.624;2023-03-15T00:53:45;7.07;;;2.23;;
24147;SDS011;12309;51.450;-2.624;2023-03-15T00:56:13;4.17;;;2.30;;
24147;SDS011;12309;51.450;-2.624;2023-03-15T00:58:47;5.63;;;1.97;;
24147;SDS011;12309;51.450;-2.624;2023-03-15T01:01:17;3.63;;;1.70;;
24147;SDS011;12309;51.450;-2.624;2023-03-15T01:03:48;5.07;;;2.10;;
24147;SDS011;12309;51.450;-2.624;2023-03-15T01:06:14;6.67;;;2.23;;
24147;SDS011;12309;51.450;-2.624;2023-03-15T01:08:42;7.47;;;2.60;;
24147;SDS011;12309;51.450;-2.624;2023-03-15T01:11:10;3.40;;;2.00;;
24147;SDS011;12309;51.450;-2.624;2023-03-15T01:13:38;10.00;;;2.63;;
24147;SDS011;12309;51.450;-2.624;2023-03-15T01:16:04;5.80;;;2.53;;
24147;SDS011;12309;51.450;-2.624;2023-03-15T01:18:31;8.43;;;2.53;;
24147;SDS011;12309;51.450;-2.624;2023-03-15T01:20:57;4.70;;;2.90;;
24147;SDS011;12309;51.450;-2.624;2023-03-15T01:23:23;6.83;;;3.50;;
24147;SDS011;12309;51.450;-2.624;2023-03-15T01:25:49;10.00;;;3.27;;
24147;SDS011;12309;51.450;-2.624;2023-03-15T01:28:14;7.37;;;3.40;;
24147;SDS011;12309;51.450;-2.624;2023-03-15T01:30:40;7.67;;;3.33;;
24147;SDS011;12309;51.450;-2.624;2023-03-15T01:33:13;7.93;;;3.53;;
24147;SDS011;12309;51.450;-2.624;2023-03-15T01:35:39;6.43;;;3.40;;
24147;SDS011;12309;51.450;-2.624;2023-03-15T01:38:05;6.03;;;3.60;;
24147;SDS011;12309;51.450;-2.624;2023-03-15T01:40:30;6.03;;;3.67;;
24147;SDS011;12309;51.450;-2.624;2023-03-15T01:48:49;6.13;;;2.83;;
24147;SDS011;12309;51.450;-2.624;2023-03-15T01:51:21;4.73;;;2.70;;
24147;SDS011;12309;51.450;-2.624;2023-03-15T01:56:51;10.60;;;3.60;;
24147;SDS011;12309;51.450;-2.624;2023-03-15T01:59:27;13.67;;;3.37;;
24147;SDS011;12309;51.450;-2.624;2023-03-15T02:01:59;12.93;;;3.33;;
24147;SDS011;12309;51.450;-2.624;2023-03-15T02:04:30;7.73;;;3.27;;
24147;SDS011;12309;51.450;-2.624;2023-03-15T02:07:01;6.13;;;2.67;;
24147;SDS011;12309;51.450;-2.624;2023-03-15T02:09:35;6.63;;;2.67;;
24147;SDS011;12309;51.450;-2.624;2023-03-15T02:12:08;7.47;;;2.43;;
24147;SDS011;12309;51.450;-2.624;2023-03-15T02:14:34;11.90;;;3.33;;
24147;SDS011;12309;51.450;-2.624;2023-03-15T02:17:00;7.60;;;3.33;;
24147;SDS011;12309;51.450;-2.624;2023-03-15T02:24:55;8.13;;;2.43;;
24147;SDS011;12309;51.450;-2.624;2023-03-15T02:27:29;4.73;;;2.03;;
24147;SDS011;12309;51.450;-2.624;2023-03-15T02:29:58;6.93;;;2.23;;
24147;SDS011;12309;51.450;-2.624;2023-03-15T02:32:27;7.20;;;2.17;;
24147;SDS011;12309;51.450;-2.624;2023-03-15T02:34:53;4.83;;;2.07;;
24147;SDS011;12309;51.450;-2.624;2023-03-15T02:37:18;6.27;;;2.30;;
24147;SDS011;12309;51.450;-2.624;2023-03-15T02:39:45;4.77;;;2.30;;
24147;SDS011;12309;51.450;-2.624;2023-03-15T02:42:11;6.97;;;2.20;;
24147;SDS011;12309;51.450;-2.624;2023-03-15T02:44:38;5.00;;;1.80;;
24147;SDS011;12309;51.450;-2.624;2023-03-15T02:47:07;6.00;;;2.03;;
24147;SDS011;12309;51.450;-2.624;2023-03-15T02:49:38;2.00;;;1.30;;
24147;SDS011;12309;51.450;-2.624;2023-03-15T02:52:06;7.27;;;1.77;;
24147;SDS011;12309;51.450;-2.624;2023-03-15T02:54:32;4.77;;;2.00;;
24147;SDS011;12309;51.450;-2.624;2023-03-15T02:57:01;6.03;;;1.73;;
24147;SDS011;12309;51.450;-2.624;2023-03-15T02:59:27;6.27;;;2.40;;
24147;SDS011;12309;51.450;-2.624;2023-03-15T03:01:53;4.90;;;2.30;;
24147;SDS011;12309;51.450;-2.624;2023-03-15T03:04:19;6.00;;;2.77;;
24147;SDS011;12309;51.450;-2.624;2023-03-15T03:06:44;5.07;;;2.70;;
24147;SDS011;12309;51.450;-2.624;2023-03-15T03:09:11;6.77;;;2.40;;
24147;SDS011;12309;51.450;-2.624;2023-03-15T03:11:37;4.43;;;2.63;;
24147;SDS011;12309;51.450;-2.624;2023-03-15T03:14:03;5.43;;;2.27;;
24147;SDS011;12309;51.450;-2.624;2023-03-15T03:16:29;4.53;;;2.20;;
24147;SDS011;12309;51.450;-2.624;2023-03-15T03:18:56;5.67;;;1.43;;
24147;SDS011;12309;51.450;-2.624;2023-03-15T03:21:22;2.43;;;1.30;;
24147;SDS011;12309;51.450;-2.624;2023-03-15T03:23:48;4.23;;;1.50;;
24147;SDS011;12309;51.450;-2.624;2023-03-15T03:26:15;3.67;;;1.97;;
24147;SDS011;12309;51.450;-2.624;2023-03-15T03:28:43;6.27;;;1.57;;
24147;SDS011;12309;51.450;-2.624;2023-03-15T03:31:20;7.70;;;1.30;;
24147;SDS011;12309;51.450;-2.624;2023-03-15T03:33:48;1.93;;;1.40;;
24147;SDS011;12309;51.450;-2.624;2023-03-15T03:36:13;2.67;;;1.27;;
24147;SDS011;12309;51.450;-2.624;2023-03-15T03:38:40;3.63;;;1.67;;
24147;SDS011;12309;51.450;-2.624;2023-03-15T03:41:07;5.53;;;2.00;;
24147;SDS011;12309;51.450;-2.624;2023-03-15T03:43:36;4.70;;;1.73;;
24147;SDS011;12309;51.450;-2.624;2023-03-15T03:46:02;5.53;;;2.37;;
24147;SDS011;12309;51.450;-2.624;2023-03-15T03:48:29;3.50;;;1.10;;
24147;SDS011;12309;51.450;-2.624;2023-03-15T03:50:55;2.27;;;1.30;;
24147;SDS011;12309;51.450;-2.624;2023-03-15T03:53:21;4.27;;;1.40;;
24147;SDS011;12309;51.450;-2.624;2023-03-15T03:55:47;2.63;;;1.03;;
24147;SDS011;12309;51.450;-2.624;2023-03-15T03:58:12;2.47;;;1.37;;
24147;SDS011;12309;51.450;-2.624;2023-03-15T04:00:38;3.60;;;1.50;;
24147;SDS011;12309;51.450;-2.624;2023-03-15T04:03:04;5.23;;;1.90;;
24147;SDS011;12309;51.450;-2.624;2023-03-15T04:05:29;4.40;;;2.50;;
24147;SDS011;12309;51.450;-2.624;2023-03-15T04:07:55;8.23;;;3.20;;
24147;SDS011;12309;51.450;-2.624;2023-03-15T04:10:21;5.67;;;3.07;;
24147;SDS011;12309;51.450;-2.624;2023-03-15T04:12:54;6.60;;;3.57;;
24147;SDS011;12309;51.450;-2.624;2023-03-15T04:15:20;6.87;;;2.63;;
24147;SDS011;12309;51.450;-2.624;2023-03-15T04:17:48;9.63;;;2.53;;
24147;SDS011;12309;51.450;-2.624;2023-03-15T04:20:14;5.27;;;2.50;;
24147;SDS011;12309;51.450;-2.624;2023-03-15T04:22:41;6.53;;;3.17;;
24147;SDS011;12309;51.450;-2.624;2023-03-15T04:25:13;6.13;;;3.10;;
24147;SDS011;12309;51.450;-2.624;2023-03-15T04:27:41;8.07;;;2.97;;
24147;SDS011;12309;51.450;-2.624;2023-03-15T04:30:06;7.10;;;2.47;;
24147;SDS011;12309;51.450;-2.624;2023-03-15T04:32:32;4.60;;;2.80;;
24147;SDS011;12309;51.450;-2.624;2023-03-15T04:34:59;7.10;;;2.73;;
24147;SDS011;12309;51.450;-2.624;2023-03-15T04:37:26;5.77;;;2.60;;
24147;SDS011;12309;51.450;-2.624;2023-03-15T04:39:52;5.57;;;2.83;;
24147;SDS011;12309;51.450;-2.624;2023-03-15T04:42:17;4.10;;;2.57;;
24147;SDS011;12309;51.450;-2.624;2023-03-15T04:44:43;4.57;;;2.43;;
24147;SDS011;12309;51.450;-2.624;2023-03-15T04:47:09;5.03;;;2.60;;
24147;SDS011;12309;51.450;-2.624;2023-03-15T04:49:35;5.23;;;2.30;;
24147;SDS011;12309;51.450;-2.624;2023-03-15T04:52:00;5.47;;;2.53;;
24147;SDS011;12309;51.450;-2.624;2023-03-15T04:54:26;5.60;;;2.57;;
24147;SDS011;12309;51.450;-2.624;2023-03-15T04:56:51;4.47;;;3.00;;
24147;SDS011;12309;51.450;-2.624;2023-03-15T04:59:17;7.07;;;3.23;;
24147;SDS011;12309;51.450;-2.624;2023-03-15T05:01:42;6.23;;;3.13;;
24147;SDS011;12309;51.450;-2.624;2023-03-15T05:04:08;5.97;;;3.40;;
24147;SDS011;12309;51.450;-2.624;2023-03-15T05:06:34;6.07;;;3.33;;
24147;SDS011;12309;51.450;-2.624;2023-03-15T05:08:59;8.17;;;3.03;;
24147;SDS011;12309;51.450;-2.624;2023-03-15T05:11:25;9.50;;;3.50;;
24147;SDS011;12309;51.450;-2.624;2023-03-15T05:13:51;9.83;;;3.33;;
24147;SDS011;12309;51.450;-2.624;2023-03-15T05:16:17;9.27;;;3.83;;
24147;SDS011;12309;51.450;-2.624;2023-03-15T05:18:42;5.60;;;3.23;;
24147;SDS011;12309;51.450;-2.624;2023-03-15T05:21:09;7.07;;;3.40;;
24147;SDS011;12309;51.450;-2.624;2023-03-15T05:23:36;5.57;;;3.57;;
24147;SDS011;12309;51.450;-2.624;2023-03-15T05:26:02;8.07;;;3.80;;
24147;SDS011;12309;51.450;-2.624;2023-03-15T05:28:28;6.50;;;3.17;;
24147;SDS011;12309;51.450;-2.624;2023-03-15T05:30:55;8.03;;;3.53;;
24147;SDS011;12309;51.450;-2.624;2023-03-15T05:33:21;7.57;;;3.07;;
24147;SDS011;12309;51.450;-2.624;2023-03-15T05:35:46;8.23;;;3.30;;
24147;SDS011;12309;51.450;-2.624;2023-03-15T05:38:12;8.97;;;3.73;;
24147;SDS011;12309;51.450;-2.624;2023-03-15T05:40:39;8.60;;;3.47;;
24147;SDS011;12309;51.450;-2.624;2023-03-15T05:43:06;7.70;;;3.50;;
24147;SDS011;12309;51.450;-2.624;2023-03-15T05:45:32;6.43;;;3.40;;
24147;SDS011;12309;51.450;-2.624;2023-03-15T05:47:58;6.07;;;3.47;;
24147;SDS011;12309;51.450;-2.624;2023-03-15T05:50:23;14.77;;;4.03;;
24147;SDS011;12309;51.450;-2.624;2023-03-15T05:52:50;13.07;;;3.40;;
24147;SDS011;12309;51.450;-2.624;2023-03-15T05:55:22;5.63;;;3.23;;
24147;SDS011;12309;51.450;-2.624;2023-03-15T05:57:48;6.90;;;3.73;;
24147;SDS011;12309;51.450;-2.624;2023-03-15T06:00:13;8.77;;;4.17;;
24147;SDS011;12309;51.450;-2.624;2023-03-15T06:02:43;11.33;;;4.17;;
24147;SDS011;12309;51.450;-2.624;2023-03-15T06:05:09;9.20;;;4.30;;
24147;SDS011;12309;51.450;-2.624;2023-03-15T06:07:35;5.67;;;3.87;;
24147;SDS011;12309;51.450;-2.624;2023-03-15T06:10:01;11.33;;;4.10;;
24147;SDS011;12309;51.450;-2.624;2023-03-15T06:12:28;8.07;;;4.23;;
24147;SDS011;12309;51.450;-2.624;2023-03-15T06:14:53;10.53;;;4.43;;
24147;SDS011;12309;51.450;-2.624;2023-03-15T06:17:19;9.13;;;4.10;;
24147;SDS011;12309;51.450;-2.624;2023-03-15T06:19:44;8.57;;;4.37;;
24147;SDS011;12309;51.450;-2.624;2023-03-15T06:22:10;8.63;;;4.57;;
24147;SDS011;12309;51.450;-2.624;2023-03-15T06:24:36;7.40;;;4.60;;
24147;SDS011;12309;51.450;-2.624;2023-03-15T06:27:02;11.37;;;5.17;;
24147;SDS011;12309;51.450;-2.624;2023-03-15T06:29:27;9.20;;;4.40;;
24147;SDS011;12309;51.450;-2.624;2023-03-15T06:31:53;7.93;;;4.77;;
24147;SDS011;12309;51.450;-2.624;2023-03-15T06:34:19;13.40;;;4.60;;
24147;SDS011;12309;51.450;-2.624;2023-03-15T06:36:45;9.90;;;4.83;;
24147;SDS011;12309;51.450;-2.624;2023-03-15T06:39:11;12.50;;;4.57;;
24147;SDS011;12309;51.450;-2.624;2023-03-15T06:41:38;7.60;;;4.73;;
24147;SDS011;12309;51.450;-2.624;2023-03-15T06:44:04;13.13;;;4.93;;
24147;SDS011;12309;51.450;-2.624;2023-03-15T06:46:30;7.40;;;4.70;;
24147;SDS011;12309;51.450;-2.624;2023-03-15T06:48:55;8.93;;;4.90;;
24147;SDS011;12309;51.450;-2.624;2023-03-15T06:51:21;8.97;;;5.17;;
24147;SDS011;12309;51.450;-2.624;2023-03-15T06:53:47;12.07;;;5.47;;
24147;SDS011;12309;51.450;-2.624;2023-03-15T06:56:13;16.17;;;5.53;;
24147;SDS011;12309;51.450;-2.624;2023-03-15T06:58:38;10.37;;;5.00;;
24147;SDS011;12309;51.450;-2.624;2023-03-15T07:01:04;9.70;;;5.10;;
24147;SDS011;12309;51.450;-2.624;2023-03-15T07:03:30;26.33;;;5.50;;
24147;SDS011;12309;51.450;-2.624;2023-03-15T07:05:55;11.10;;;5.10;;
24147;SDS011;12309;51.450;-2.624;2023-03-15T07:08:22;14.83;;;4.67;;
24147;SDS011;12309;51.450;-2.624;2023-03-15T07:10:48;14.07;;;5.10;;
24147;SDS011;12309;51.450;-2.624;2023-03-15T07:13:15;9.03;;;4.50;;
24147;SDS011;12309;51.450;-2.624;2023-03-15T07:15:41;10.57;;;5.27;;
24147;SDS011;12309;51.450;-2.624;2023-03-15T07:18:07;9.00;;;4.03;;
24147;SDS011;12309;51.450;-2.624;2023-03-15T07:20:32;10.20;;;4.83;;
24147;SDS011;12309;51.450;-2.624;2023-03-15T07:22:58;10.70;;;4.50;;
24147;SDS011;12309;51.450;-2.624;2023-03-15T07:25:24;9.43;;;4.60;;
24147;SDS011;12309;51.450;-2.624;2023-03-15T07:27:50;9.93;;;4.93;;
24147;SDS011;12309;51.450;-2.624;2023-03-15T07:30:17;11.80;;;4.80;;
24147;SDS011;12309;51.450;-2.624;2023-03-15T07:32:44;10.13;;;4.87;;
24147;SDS011;12309;51.450;-2.624;2023-03-15T07:35:10;9.50;;;5.07;;
24147;SDS011;12309;51.450;-2.624;2023-03-15T07:37:37;9.67;;;5.10;;
24147;SDS011;12309;51.450;-2.624;2023-03-15T07:40:03;10.27;;;5.10;;
24147;SDS011;12309;51.450;-2.624;2023-03-15T07:42:33;9.67;;;4.50;;
24147;SDS011;12309;51.450;-2.624;2023-03-15T07:45:05;11.00;;;5.27;;
24147;SDS011;12309;51.450;-2.624;2023-03-15T07:47:31;8.57;;;4.77;;
24147;SDS011;12309;51.450;-2.624;2023-03-15T07:49:57;11.83;;;4.73;;
24147;SDS011;12309;51.450;-2.624;2023-03-15T07:52:23;5.00;;;3.97;;
24147;SDS011;12309;51.450;-2.624;2023-03-15T07:54:49;11.40;;;4.67;;
24147;SDS011;12309;51.450;-2.624;2023-03-15T07:57:15;11.50;;;5.47;;
24147;SDS011;12309;51.450;-2.624;2023-03-15T07:59:41;10.80;;;5.90;;
24147;SDS011;12309;51.450;-2.624;2023-03-15T08:02:08;11.33;;;5.07;;
24147;SDS011;12309;51.450;-2.624;2023-03-15T08:04:36;13.03;;;5.60;;
24147;SDS011;12309;51.450;-2.624;2023-03-15T08:07:01;10.70;;;5.50;;
24147;SDS011;12309;51.450;-2.624;2023-03-15T08:09:27;9.53;;;5.13;;
24147;SDS011;12309;51.450;-2.624;2023-03-15T08:11:53;13.00;;;5.23;;
24147;SDS011;12309;51.450;-2.624;2023-03-15T08:14:19;14.33;;;5.97;;
24147;SDS011;12309;51.450;-2.624;2023-03-15T08:16:45;12.27;;;5.70;;
24147;SDS011;12309;51.450;-2.624;2023-03-15T08:19:10;8.83;;;5.00;;
24147;SDS011;12309;51.450;-2.624;2023-03-15T08:21:36;17.40;;;5.90;;
24147;SDS011;12309;51.450;-2.624;2023-03-15T08:24:02;8.40;;;5.37;;
24147;SDS011;12309;51.450;-2.624;2023-03-15T08:26:27;15.83;;;7.23;;
24147;SDS011;12309;51.450;-2.624;2023-03-15T08:28:53;15.70;;;6.27;;
24147;SDS011;12309;51.450;-2.624;2023-03-15T08:31:18;13.37;;;6.13;;
24147;SDS011;12309;51.450;-2.624;2023-03-15T08:33:45;10.37;;;5.63;;
24147;SDS011;12309;51.450;-2.624;2023-03-15T08:36:11;10.43;;;5.77;;
24147;SDS011;12309;51.450;-2.624;2023-03-15T08:38:37;12.57;;;5.33;;
24147;SDS011;12309;51.450;-2.624;2023-03-15T08:41:03;11.67;;;6.17;;
24147;SDS011;12309;51.450;-2.624;2023-03-15T08:43:28;14.20;;;6.30;;
24147;SDS011;12309;51.450;-2.624;2023-03-15T08:45:54;15.50;;;6.30;;
24147;SDS011;12309;51.450;-2.624;2023-03-15T08:48:19;11.63;;;5.90;;
24147;SDS011;12309;51.450;-2.624;2023-03-15T08:50:45;10.70;;;6.20;;
24147;SDS011;12309;51.450;-2.624;2023-03-15T08:53:11;11.90;;;6.37;;
24147;SDS011;12309;51.450;-2.624;2023-03-15T08:55:36;13.03;;;6.23;;
24147;SDS011;12309;51.450;-2.624;2023-03-15T08:58:02;11.50;;;5.77;;
24147;SDS011;12309;51.450;-2.624;2023-03-15T09:00:28;13.13;;;6.50;;
24147;SDS011;12309;51.450;-2.624;2023-03-15T09:02:54;12.83;;;6.57;;
24147;SDS011;12309;51.450;-2.624;2023-03-15T09:05:22;13.13;;;6.03;;
24147;SDS011;12309;51.450;-2.624;2023-03-15T09:07:49;12.07;;;6.40;;
24147;SDS011;12309;51.450;-2.624;2023-03-15T09:10:16;16.20;;;6.37;;
24147;SDS011;12309;51.450;-2.624;2023-03-15T09:12:45;16.13;;;6.13;;
24147;SDS011;12309;51.450;-2.624;2023-03-15T09:15:12;11.50;;;5.70;;
24147;SDS011;12309;51.450;-2.624;2023-03-15T09:17:38;13.80;;;6.20;;
24147;SDS011;12309;51.450;-2.624;2023-03-15T09:20:06;11.43;;;5.60;;
24147;SDS011;12309;51.450;-2.624;2023-03-15T09:22:36;17.47;;;5.77;;
24147;SDS011;12309;51.450;-2.624;2023-03-15T09:25:02;9.83;;;5.00;;
24147;SDS011;12309;51.450;-2.624;2023-03-15T09:27:31;11.27;;;5.30;;
24147;SDS011;12309;51.450;-2.624;2023-03-15T09:29:57;17.07;;;5.60;;
24147;SDS011;12309;51.450;-2.624;2023-03-15T09:32:23;11.50;;;5.43;;
24147;SDS011;12309;51.450;-2.624;2023-03-15T09:34:49;15.03;;;5.67;;
24147;SDS011;12309;51.450;-2.624;2023-03-15T09:37:15;10.47;;;5.07;;
24147;SDS011;12309;51.450;-2.624;2023-03-15T09:39:41;8.73;;;4.87;;
24147;SDS011;12309;51.450;-2.624;2023-03-15T09:42:12;13.20;;;4.90;;
24147;SDS011;12309;51.450;-2.624;2023-03-15T09:50:21;11.50;;;4.83;;
24147;SDS011;12309;51.450;-2.624;2023-03-15T09:52:51;9.60;;;4.30;;
24147;SDS011;12309;51.450;-2.624;2023-03-15T09:55:26;10.23;;;4.47;;
24147;SDS011;12309;51.450;-2.624;2023-03-15T09:57:54;8.30;;;4.10;;
24147;SDS011;12309;51.450;-2.624;2023-03-15T10:00:36;19.87;;;4.47;;
24147;SDS011;12309;51.450;-2.624;2023-03-15T10:03:05;14.60;;;4.60;;
24147;SDS011;12309;51.450;-2.624;2023-03-15T10:08:07;17.07;;;5.67;;
24147;SDS011;12309;51.450;-2.624;2023-03-15T10:10:38;12.00;;;4.00;;
24147;SDS011;12309;51.450;-2.624;2023-03-15T10:16:24;11.77;;;4.30;;
24147;SDS011;12309;51.450;-2.624;2023-03-15T10:24:43;15.47;;;3.60;;
24147;SDS011;12309;51.450;-2.624;2023-03-15T10:27:14;12.20;;;3.77;;
24147;SDS011;12309;51.450;-2.624;2023-03-15T10:29:48;7.60;;;2.63;;
24147;SDS011;12309;51.450;-2.624;2023-03-15T10:32:17;9.20;;;3.10;;
24147;SDS011;12309;51.450;-2.624;2023-03-15T10:34:46;7.37;;;1.90;;
24147;SDS011;12309;51.450;-2.624;2023-03-15T10:37:14;8.00;;;2.00;;
24147;SDS011;12309;51.450;-2.624;2023-03-15T10:39:40;11.17;;;2.70;;
24147;SDS011;12309;51.450;-2.624;2023-03-15T10:42:22;7.50;;;2.30;;
24147;SDS011;12309;51.450;-2.624;2023-03-15T10:44:57;9.47;;;2.03;;
24147;SDS011;12309;51.450;-2.624;2023-03-15T10:47:24;4.13;;;1.37;;
24147;SDS011;12309;51.450;-2.624;2023-03-15T10:49:54;10.90;;;1.27;;
24147;SDS011;12309;51.450;-2.624;2023-03-15T10:55:00;6.80;;;1.33;;
24147;SDS011;12309;51.450;-2.624;2023-03-15T10:57:39;4.33;;;1.40;;
24147;SDS011;12309;51.450;-2.624;2023-03-15T11:03:02;7.20;;;1.43;;
24147;SDS011;12309;51.450;-2.624;2023-03-15T11:05:43;9.53;;;1.30;;
24147;SDS011;12309;51.450;-2.624;2023-03-15T11:08:15;8.43;;;1.43;;
24147;SDS011;12309;51.450;-2.624;2023-03-15T11:10:44;5.27;;;1.00;;
24147;SDS011;12309;51.450;-2.624;2023-03-15T11:13:18;11.37;;;0.80;;
24147;SDS011;12309;51.450;-2.624;2023-03-15T11:15:48;14.63;;;1.20;;
24147;SDS011;12309;51.450;-2.624;2023-03-15T11:18:38;7.93;;;1.00;;
24147;SDS011;12309;51.450;-2.624;2023-03-15T11:21:08;9.77;;;1.00;;
24147;SDS011;12309;51.450;-2.624;2023-03-15T11:23:38;3.73;;;0.97;;
24147;SDS011;12309;51.450;-2.624;2023-03-15T11:26:14;5.43;;;0.93;;
24147;SDS011;12309;51.450;-2.624;2023-03-15T11:28:51;7.97;;;1.10;;
24147;SDS011;12309;51.450;-2.624;2023-03-15T11:31:21;12.67;;;1.23;;
24147;SDS011;12309;51.450;-2.624;2023-03-15T11:34:01;7.40;;;1.17;;
24147;SDS011;12309;51.450;-2.624;2023-03-15T11:36:45;12.07;;;1.10;;
24147;SDS011;12309;51.450;-2.624;2023-03-15T11:39:23;10.77;;;1.63;;
24147;SDS011;12309;51.450;-2.624;2023-03-15T11:41:59;6.63;;;1.10;;
24147;SDS011;12309;51.450;-2.624;2023-03-15T11:44:42;9.20;;;1.17;;
24147;SDS011;12309;51.450;-2.624;2023-03-15T11:50:00;3.90;;;0.90;;
24147;SDS011;12309;51.450;-2.624;2023-03-15T11:52:26;7.00;;;1.50;;
24147;SDS011;12309;51.450;-2.624;2023-03-15T11:54:54;7.63;;;1.40;;
24147;SDS011;12309;51.450;-2.624;2023-03-15T11:59:52;11.87;;;1.43;;
24147;SDS011;12309;51.450;-2.624;2023-03-15T12:02:47;3.63;;;0.90;;
24147;SDS011;12309;51.450;-2.624;2023-03-15T12:05:39;8.43;;;1.10;;
24147;SDS011;12309;51.450;-2.624;2023-03-15T12:08:18;6.63;;;1.07;;
24147;SDS011;12309;51.450;-2.624;2023-03-15T12:10:45;5.03;;;1.20;;
24147;SDS011;12309;51.450;-2.624;2023-03-15T12:13:24;10.47;;;1.20;;
24147;SDS011;12309;51.450;-2.624;2023-03-15T12:15:51;9.83;;;1.20;;
24147;SDS011;12309;51.450;-2.624;2023-03-15T12:18:18;5.67;;;1.47;;
24147;SDS011;12309;51.450;-2.624;2023-03-15T12:20:50;9.53;;;1.57;;
24147;SDS011;12309;51.450;-2.624;2023-03-15T12:23:43;7.87;;;1.90;;
24147;SDS011;12309;51.450;-2.624;2023-03-15T12:26:22;4.60;;;1.20;;
24147;SDS011;12309;51.450;-2.624;2023-03-15T12:28:51;9.73;;;1.67;;
24147;SDS011;12309;51.450;-2.624;2023-03-15T12:31:43;7.67;;;1.53;;
24147;SDS011;12309;51.450;-2.624;2023-03-15T12:34:22;6.93;;;1.70;;
24147;SDS011;12309;51.450;-2.624;2023-03-15T12:36:50;9.37;;;1.33;;
24147;SDS011;12309;51.450;-2.624;2023-03-15T12:39:32;4.73;;;1.07;;
24147;SDS011;12309;51.450;-2.624;2023-03-15T12:42:04;3.57;;;1.30;;
24147;SDS011;12309;51.450;-2.624;2023-03-15T12:44:37;9.67;;;1.90;;
24147;SDS011;12309;51.450;-2.624;2023-03-15T12:47:05;5.53;;;1.67;;
24147;SDS011;12309;51.450;-2.624;2023-03-15T12:49:44;4.37;;;0.93;;
24147;SDS011;12309;51.450;-2.624;2023-03-15T12:57:19;5.80;;;1.60;;
24147;SDS011;12309;51.450;-2.624;2023-03-15T12:59:54;8.10;;;1.30;;
24147;SDS011;12309;51.450;-2.624;2023-03-15T13:02:30;5.43;;;1.00;;
24147;SDS011;12309;51.450;-2.624;2023-03-15T13:05:03;6.50;;;1.30;;
24147;SDS011;12309;51.450;-2.624;2023-03-15T13:07:40;5.87;;;1.40;;
24147;SDS011;12309;51.450;-2.624;2023-03-15T13:10:15;5.97;;;1.43;;
24147;SDS011;12309;51.450;-2.624;2023-03-15T13:16:07;4.57;;;1.40;;
24147;SDS011;12309;51.450;-2.624;2023-03-15T13:21:52;7.17;;;1.53;;
24147;SDS011;12309;51.450;-2.624;2023-03-15T13:24:27;4.80;;;1.03;;
24147;SDS011;12309;51.450;-2.624;2023-03-15T13:27:11;4.57;;;1.10;;
24147;SDS011;12309;51.450;-2.624;2023-03-15T13:29:47;6.07;;;1.33;;
24147;SDS011;12309;51.450;-2.624;2023-03-15T13:32:15;7.00;;;1.13;;
24147;SDS011;12309;51.450;-2.624;2023-03-15T13:34:46;5.87;;;1.20;;
24147;SDS011;12309;51.450;-2.624;2023-03-15T13:37:23;5.40;;;0.80;;
24147;SDS011;12309;51.450;-2.624;2023-03-15T13:39:58;6.67;;;0.80;;
24147;SDS011;12309;51.450;-2.624;2023-03-15T13:42:26;6.80;;;0.70;;
24147;SDS011;12309;51.450;-2.624;2023-03-15T13:47:47;1.90;;;0.60;;
24147;SDS011;12309;51.450;-2.624;2023-03-15T13:50:19;5.57;;;0.53;;
24147;SDS011;12309;51.450;-2.624;2023-03-15T13:52:45;4.57;;;0.50;;
24147;SDS011;12309;51.450;-2.624;2023-03-15T13:55:18;3.90;;;1.17;;
24147;SDS011;12309;51.450;-2.624;2023-03-15T13:57:47;2.27;;;0.73;;
24147;SDS011;12309;51.450;-2.624;2023-03-15T14:00:24;5.67;;;1.07;;
24147;SDS011;12309;51.450;-2.624;2023-03-15T14:02:57;7.73;;;1.00;;
24147;SDS011;12309;51.450;-2.624;2023-03-15T14:05:30;5.27;;;0.63;;
24147;SDS011;12309;51.450;-2.624;2023-03-15T14:08:02;4.77;;;0.43;;
24147;SDS011;12309;51.450;-2.624;2023-03-15T14:10:34;5.03;;;1.20;;
24147;SDS011;12309;51.450;-2.624;2023-03-15T14:16:16;5.13;;;0.97;;
24147;SDS011;12309;51.450;-2.624;2023-03-15T14:21:43;7.63;;;0.80;;
24147;SDS011;12309;51.450;-2.624;2023-03-15T14:24:15;8.77;;;1.03;;
24147;SDS011;12309;51.450;-2.624;2023-03-15T14:26:51;5.07;;;0.60;;
24147;SDS011;12309;51.450;-2.624;2023-03-15T14:29:26;8.97;;;1.03;;
24147;SDS011;12309;51.450;-2.624;2023-03-15T14:31:57;4.30;;;0.60;;
24147;SDS011;12309;51.450;-2.624;2023-03-15T14:34:35;8.23;;;1.07;;
24147;SDS011;12309;51.450;-2.624;2023-03-15T14:37:26;3.67;;;0.97;;
24147;SDS011;12309;51.450;-2.624;2023-03-15T14:40:02;3.13;;;0.70;;
24147;SDS011;12309;51.450;-2.624;2023-03-15T14:42:44;1.23;;;0.40;;
24147;SDS011;12309;51.450;-2.624;2023-03-15T14:45:10;1.57;;;0.43;;
24147;SDS011;12309;51.450;-2.624;2023-03-15T14:47:38;2.40;;;0.80;;
24147;SDS011;12309;51.450;-2.624;2023-03-15T14:50:17;3.67;;;0.60;;
24147;SDS011;12309;51.450;-2.624;2023-03-15T14:52:45;1.43;;;0.57;;
24147;SDS011;12309;51.450;-2.624;2023-03-15T14:55:12;7.00;;;1.03;;
24147;SDS011;12309;51.450;-2.624;2023-03-15T14:57:39;6.70;;;1.17;;
24147;SDS011;12309;51.450;-2.624;2023-03-15T15:00:05;6.33;;;1.40;;
24147;SDS011;12309;51.450;-2.624;2023-03-15T15:02:37;2.13;;;0.90;;
24147;SDS011;12309;51.450;-2.624;2023-03-15T15:05:12;6.50;;;1.00;;
24147;SDS011;12309;51.450;-2.624;2023-03-15T15:08:04;6.07;;;0.97;;
24147;SDS011;12309;51.450;-2.624;2023-03-15T15:10:36;8.13;;;0.70;;
24147;SDS011;12309;51.450;-2.624;2023-03-15T15:13:04;8.07;;;0.93;;
24147;SDS011;12309;51.450;-2.624;2023-03-15T15:15:30;3.07;;;0.80;;
24147;SDS011;12309;51.450;-2.624;2023-03-15T15:17:55;7.17;;;1.13;;
24147;SDS011;12309;51.450;-2.624;2023-03-15T15:20:22;8.73;;;1.30;;
24147;SDS011;12309;51.450;-2.624;2023-03-15T15:22:48;11.30;;;1.60;;
24147;SDS011;12309;51.450;-2.624;2023-03-15T15:25:15;3.90;;;1.33;;
24147;SDS011;12309;51.450;-2.624;2023-03-15T15:27:42;6.30;;;1.50;;
24147;SDS011;12309;51.450;-2.624;2023-03-15T15:30:10;11.90;;;1.43;;
24147;SDS011;12309;51.450;-2.624;2023-03-15T15:32:37;5.43;;;1.37;;
24147;SDS011;12309;51.450;-2.624;2023-03-15T15:35:03;14.83;;;2.67;;
24147;SDS011;12309;51.450;-2.624;2023-03-15T15:37:30;6.47;;;1.03;;
24147;SDS011;12309;51.450;-2.624;2023-03-15T15:39:56;2.57;;;1.10;;
24147;SDS011;12309;51.450;-2.624;2023-03-15T15:42:22;8.53;;;1.10;;